createdAt,value
2023-02-22T00:01:15.500Z,2.10
2023-02-22T00:03:43.009Z,2.65
2023-02-22T00:06:34.483Z,2.13
2023-02-22T00:09:04.872Z,2.08
2023-02-22T00:11:31.813Z,1.95
2023-02-22T00:14:02.495Z,2.28
2023-02-22T00:16:30.176Z,1.98
2023-02-22T00:18:57.050Z,2.17
2023-02-22T00:21:26.472Z,1.92
2023-02-22T00:23:53.229Z,2.75
2023-02-22T00:26:22.361Z,3.08
2023-02-22T00:28:52.812Z,2.10
2023-02-22T00:31:21.619Z,2.17
2023-02-22T00:33:49.693Z,2.13
2023-02-22T00:36:17.413Z,3.38
2023-02-22T00:38:44.210Z,2.53
2023-02-22T00:41:12.516Z,2.40
2023-02-22T00:43:43.046Z,3.20
2023-02-22T00:46:10.014Z,4.22
2023-02-22T00:49:02.410Z,2.35
2023-02-22T00:51:29.852Z,2.75
2023-02-22T00:54:00.599Z,2.45
2023-02-22T00:56:27.493Z,2.60
2023-02-22T00:58:55.190Z,2.25
2023-02-22T01:01:23.610Z,2.17
2023-02-22T01:03:50.410Z,2.42
2023-02-22T01:06:22.049Z,2.20
2023-02-22T01:08:49.253Z,1.83
2023-02-22T01:11:18.703Z,3.15
2023-02-22T01:13:45.995Z,2.42
2023-02-22T01:16:13.528Z,1.90
2023-02-22T01:18:40.731Z,3.15
2023-02-22T01:21:07.610Z,2.37
2023-02-22T01:23:39.503Z,4.38
2023-02-22T01:26:06.657Z,2.55
2023-02-22T01:28:38.455Z,3.78
2023-02-22T01:31:05.712Z,2.65
2023-02-22T01:33:32.944Z,3.07
2023-02-22T01:36:02.465Z,2.00
2023-02-22T01:38:29.270Z,2.10
2023-02-22T01:40:56.432Z,2.15
2023-02-22T01:43:30.327Z,2.55
2023-02-22T01:46:23.622Z,2.50
2023-02-22T01:49:03.661Z,2.50
2023-02-22T01:51:40.255Z,2.83
2023-02-22T01:54:13.848Z,2.88
2023-02-22T01:56:50.500Z,2.45
2023-02-22T01:59:21.852Z,2.03
2023-02-22T02:01:49.798Z,2.65
2023-02-22T02:04:21.114Z,2.85
2023-02-22T02:06:48.696Z,2.17
2023-02-22T02:09:37.686Z,2.40
2023-02-22T02:12:08.089Z,3.57
2023-02-22T02:14:34.976Z,1.80
2023-02-22T02:17:01.889Z,2.40
2023-02-22T02:19:42.869Z,1.75
2023-02-22T02:22:37.753Z,1.92
2023-02-22T02:25:19.512Z,2.30
2023-02-22T02:28:32.085Z,2.05
2023-02-22T02:31:39.845Z,3.35
2023-02-22T02:34:30.227Z,2.63
2023-02-22T02:37:33.489Z,3.20
2023-02-22T02:40:29.957Z,1.67
2023-02-22T02:43:31.478Z,2.22
2023-02-22T02:46:09.860Z,1.88
2023-02-22T02:48:42.430Z,3.00
2023-02-22T02:51:12.017Z,1.80
2023-02-22T02:54:08.513Z,3.37
2023-02-22T02:56:36.048Z,2.10
2023-02-22T02:59:02.959Z,2.30
2023-02-22T03:01:39.487Z,2.33
2023-02-22T03:04:59.022Z,2.88
2023-02-22T03:11:27.487Z,2.03
2023-02-22T03:14:05.403Z,2.50
2023-02-22T03:16:51.658Z,2.47
2023-02-22T03:19:35.952Z,2.78
2023-02-22T03:22:30.470Z,3.00
2023-02-22T03:25:33.374Z,2.28
2023-02-22T03:28:07.521Z,2.95
2023-02-22T03:30:47.747Z,2.92
2023-02-22T03:33:27.788Z,4.18
2023-02-22T03:36:00.910Z,1.93
2023-02-22T03:38:36.456Z,2.75
2023-02-22T03:41:08.424Z,2.00
2023-02-22T03:46:45.405Z,4.03
2023-02-22T03:49:29.925Z,2.60
2023-02-22T03:51:58.338Z,5.38
2023-02-22T03:54:26.936Z,2.35
2023-02-22T04:00:24.477Z,3.85
2023-02-22T04:02:52.071Z,2.50
2023-02-22T04:05:21.429Z,2.42
2023-02-22T04:07:50.498Z,3.72
2023-02-22T04:10:17.562Z,3.53
2023-02-22T04:12:44.834Z,3.67
2023-02-22T04:15:15.441Z,4.60
2023-02-22T04:17:43.633Z,2.72
2023-02-22T04:20:16.466Z,2.63
2023-02-22T04:22:48.902Z,2.63
2023-02-22T04:25:16.137Z,3.92
2023-02-22T04:27:44.037Z,4.13
2023-02-22T04:30:12.298Z,3.75
2023-02-22T04:32:41.397Z,5.15
2023-02-22T04:35:10.596Z,3.63
2023-02-22T04:37:37.552Z,2.95
2023-02-22T04:40:07.597Z,3.13
2023-02-22T04:42:37.431Z,2.85
2023-02-22T04:45:07.238Z,3.42
2023-02-22T04:47:36.727Z,2.83
2023-02-22T04:50:12.459Z,3.05
2023-02-22T04:52:39.482Z,4.03
2023-02-22T04:55:06.628Z,3.25
2023-02-22T04:57:59.450Z,3.95
2023-02-22T05:00:27.072Z,2.55
2023-02-22T05:03:01.716Z,3.85
2023-02-22T05:05:30.068Z,2.97
2023-02-22T05:07:58.032Z,3.45
2023-02-22T05:10:25.209Z,4.20
2023-02-22T05:12:53.329Z,2.42
2023-02-22T05:15:22.389Z,3.10
2023-02-22T05:17:50.940Z,4.37
2023-02-22T05:20:25.549Z,3.60
2023-02-22T05:22:53.437Z,3.45
2023-02-22T05:25:24.618Z,3.72
2023-02-22T05:28:01.556Z,4.15
2023-02-22T05:30:31.680Z,3.50
2023-02-22T05:33:00.678Z,3.63
2023-02-22T05:35:29.059Z,3.60
2023-02-22T05:37:58.525Z,4.22
2023-02-22T05:40:27.093Z,3.97
2023-02-22T05:43:20.725Z,3.00
2023-02-22T05:45:47.601Z,3.97
2023-02-22T05:48:14.352Z,3.38
2023-02-22T05:50:43.609Z,3.90
2023-02-22T05:53:10.705Z,2.88
2023-02-22T05:55:39.041Z,3.30
2023-02-22T05:58:08.033Z,4.28
2023-02-22T06:00:34.821Z,4.70
2023-02-22T06:03:08.822Z,3.22
2023-02-22T06:05:40.389Z,4.35
2023-02-22T06:08:09.476Z,3.40
2023-02-22T06:10:36.706Z,3.58
2023-02-22T06:13:06.000Z,3.08
2023-02-22T06:15:33.137Z,3.20
2023-02-22T06:18:01.085Z,4.32
2023-02-22T06:20:31.317Z,3.40
2023-02-22T06:22:59.508Z,3.05
2023-02-22T06:25:30.723Z,2.90
2023-02-22T06:28:04.427Z,3.03
2023-02-22T06:30:31.384Z,3.92
2023-02-22T06:32:58.155Z,3.87
2023-02-22T06:35:26.537Z,2.88
2023-02-22T06:37:53.346Z,3.92
2023-02-22T06:40:21.191Z,5.93
2023-02-22T06:42:51.476Z,4.20
2023-02-22T06:45:18.626Z,5.40
2023-02-22T06:47:47.408Z,4.35
2023-02-22T06:50:28.900Z,5.63
2023-02-22T06:52:57.859Z,6.13
2023-02-22T06:55:27.930Z,8.32
2023-02-22T06:57:55.085Z,6.47
2023-02-22T07:00:24.878Z,5.97
2023-02-22T07:02:53.172Z,4.85
2023-02-22T07:05:22.633Z,6.07
2023-02-22T07:07:51.236Z,8.68
2023-02-22T07:10:28.063Z,7.57
2023-02-22T07:12:54.895Z,5.07
2023-02-22T07:15:28.527Z,8.18
2023-02-22T07:17:57.042Z,5.47
2023-02-22T07:20:27.963Z,5.07
2023-02-22T07:22:56.493Z,4.03
2023-02-22T07:25:24.137Z,3.97
2023-02-22T07:27:51.902Z,6.05
2023-02-22T07:30:26.489Z,6.60
2023-02-22T07:32:55.045Z,3.70
2023-02-22T07:35:29.407Z,6.27
2023-02-22T07:37:56.370Z,5.45
2023-02-22T07:40:24.661Z,7.40
2023-02-22T07:42:57.070Z,9.38
2023-02-22T07:45:26.826Z,8.20
2023-02-22T07:47:54.245Z,11.70
2023-02-22T07:50:22.617Z,7.45
2023-02-22T07:52:51.577Z,7.00
2023-02-22T07:55:21.964Z,9.18
2023-02-22T07:57:51.290Z,4.57
2023-02-22T08:00:39.789Z,7.13
2023-02-22T08:03:09.663Z,8.02
2023-02-22T08:05:38.586Z,7.72
2023-02-22T08:08:06.346Z,4.60
2023-02-22T08:10:34.846Z,4.88
2023-02-22T08:13:03.020Z,6.77
2023-02-22T08:15:32.711Z,5.22
2023-02-22T08:18:01.210Z,3.45
2023-02-22T08:20:29.363Z,2.80
2023-02-22T08:22:56.829Z,3.65
2023-02-22T08:25:26.758Z,5.20
2023-02-22T08:27:58.033Z,3.90
2023-02-22T08:30:25.654Z,3.15
2023-02-22T08:32:52.723Z,3.42
2023-02-22T08:35:21.334Z,4.03
2023-02-22T08:37:53.315Z,3.77
2023-02-22T08:40:25.180Z,3.33
2023-02-22T08:42:52.125Z,2.38
2023-02-22T08:45:18.975Z,2.70
2023-02-22T08:47:46.562Z,4.40
2023-02-22T08:50:20.836Z,2.57
2023-02-22T08:52:47.761Z,3.42
2023-02-22T08:55:14.610Z,2.88
2023-02-22T08:57:41.510Z,3.83
2023-02-22T09:00:08.860Z,3.22
2023-02-22T09:02:35.688Z,3.50
2023-02-22T09:05:02.655Z,3.88
2023-02-22T09:07:29.448Z,5.55
2023-02-22T09:09:56.288Z,5.03
2023-02-22T09:12:23.538Z,3.83
2023-02-22T09:14:50.370Z,9.13
2023-02-22T09:17:17.204Z,3.60
2023-02-22T09:19:44.108Z,4.05
2023-02-22T09:22:11.580Z,3.47
2023-02-22T09:24:38.450Z,4.20
2023-02-22T09:27:05.270Z,3.53
2023-02-22T09:29:32.037Z,4.00
2023-02-22T09:31:59.120Z,3.55
2023-02-22T09:34:26.088Z,2.90
2023-02-22T09:36:53.029Z,2.72
2023-02-22T09:39:19.814Z,1.87
2023-02-22T09:41:57.069Z,2.38
2023-02-22T09:44:37.680Z,3.20
2023-02-22T09:47:06.459Z,2.92
2023-02-22T09:49:44.733Z,2.30
2023-02-22T09:52:22.441Z,2.67
2023-02-22T09:55:01.982Z,2.05
2023-02-22T09:57:35.943Z,2.65
2023-02-22T10:00:15.325Z,2.40
2023-02-22T10:03:21.225Z,2.83
2023-02-22T10:06:00.776Z,2.67
2023-02-22T10:08:31.993Z,2.70
2023-02-22T10:11:20.716Z,2.85
2023-02-22T10:13:47.557Z,5.25
2023-02-22T10:16:29.226Z,3.72
2023-02-22T10:19:26.497Z,3.07
2023-02-22T10:21:59.940Z,2.70
2023-02-22T10:24:38.827Z,2.00
2023-02-22T10:27:18.678Z,2.92
2023-02-22T10:29:54.829Z,2.80
2023-02-22T10:32:31.666Z,3.67
2023-02-22T10:35:01.858Z,2.80
2023-02-22T10:37:34.407Z,4.00
2023-02-22T10:40:13.885Z,2.65
2023-02-22T10:42:40.675Z,3.30
2023-02-22T10:45:20.808Z,2.00
2023-02-22T10:47:48.057Z,5.53
2023-02-22T10:50:15.657Z,3.58
2023-02-22T10:52:42.547Z,3.63
2023-02-22T10:55:15.685Z,3.47
2023-02-22T10:57:47.327Z,3.33
2023-02-22T11:00:20.020Z,4.95
2023-02-22T11:02:53.298Z,2.90
2023-02-22T11:05:31.064Z,3.30
2023-02-22T11:08:16.456Z,3.20
2023-02-22T11:10:44.109Z,3.83
2023-02-22T11:13:18.290Z,3.20
2023-02-22T11:15:45.254Z,3.80
2023-02-22T11:18:34.020Z,3.28
2023-02-22T11:21:06.572Z,3.80
2023-02-22T11:23:36.690Z,6.20
2023-02-22T11:26:09.270Z,2.60
2023-02-22T11:28:37.391Z,3.20
2023-02-22T11:31:21.267Z,3.85
2023-02-22T11:34:00.301Z,3.88
2023-02-22T11:36:42.693Z,2.67
2023-02-22T11:39:24.677Z,3.33
2023-02-22T11:41:51.515Z,3.00
2023-02-22T11:44:30.681Z,3.50
2023-02-22T11:47:00.600Z,5.07
2023-02-22T11:49:37.154Z,4.63
2023-02-22T11:52:27.146Z,3.97
2023-02-22T11:55:42.299Z,4.43
2023-02-22T11:58:47.999Z,3.72
2023-02-22T12:01:27.015Z,6.05
2023-02-22T12:04:18.336Z,4.60
2023-02-22T12:07:22.017Z,3.15
2023-02-22T12:09:56.036Z,4.30
2023-02-22T12:13:00.796Z,3.25
2023-02-22T12:15:51.323Z,4.10
2023-02-22T12:18:41.230Z,4.70
2023-02-22T12:21:15.119Z,4.55
2023-02-22T12:23:52.420Z,4.30
2023-02-22T12:26:40.200Z,4.30
2023-02-22T12:29:12.393Z,6.18
2023-02-22T12:31:46.581Z,4.17
2023-02-22T12:34:29.395Z,5.22
2023-02-22T12:37:18.326Z,4.18
2023-02-22T12:40:03.337Z,5.10
2023-02-22T12:42:33.568Z,4.68
2023-02-22T12:45:10.364Z,6.23
2023-02-22T12:47:46.058Z,4.30
2023-02-22T12:50:21.823Z,4.40
2023-02-22T12:53:08.435Z,4.40
2023-02-22T12:55:47.664Z,3.60
2023-02-22T12:58:37.866Z,4.23
2023-02-22T13:01:12.269Z,7.10
2023-02-22T13:03:42.289Z,6.03
2023-02-22T13:06:30.591Z,4.78
2023-02-22T13:09:16.262Z,4.05
2023-02-22T13:11:58.196Z,4.10
2023-02-22T13:14:54.679Z,3.92
2023-02-22T13:17:30.578Z,3.97
2023-02-22T13:20:00.299Z,3.10
2023-02-22T13:22:41.873Z,4.03
2023-02-22T13:25:14.221Z,5.90
2023-02-22T13:28:01.372Z,3.55
2023-02-22T13:30:39.103Z,4.13
2023-02-22T13:33:19.607Z,4.70
2023-02-22T13:36:01.503Z,5.80
2023-02-22T13:38:34.102Z,6.53
2023-02-22T13:41:19.562Z,3.42
2023-02-22T13:43:56.252Z,3.85
2023-02-22T13:46:58.182Z,3.25
2023-02-22T13:49:36.912Z,5.07
2023-02-22T13:52:27.236Z,4.40
2023-02-22T13:55:01.233Z,5.55
2023-02-22T13:57:35.262Z,4.93
2023-02-22T14:00:40.300Z,4.10
2023-02-22T14:03:13.310Z,5.68
2023-02-22T14:05:40.435Z,4.57
2023-02-22T14:08:13.984Z,3.25
2023-02-22T14:10:43.649Z,4.15
2023-02-22T14:13:11.602Z,3.72
2023-02-22T14:16:01.656Z,6.82
2023-02-22T14:18:41.542Z,5.27
2023-02-22T14:21:15.763Z,4.03
2023-02-22T14:23:51.029Z,5.70
2023-02-22T14:26:24.789Z,4.35
2023-02-22T14:28:55.055Z,3.70
2023-02-22T14:31:36.886Z,4.70
2023-02-22T14:34:16.103Z,5.18
2023-02-22T14:36:56.209Z,4.35
2023-02-22T14:39:37.912Z,5.53
2023-02-22T14:42:19.875Z,5.25
2023-02-22T14:45:10.453Z,5.43
2023-02-22T14:47:40.250Z,5.20
2023-02-22T14:50:12.776Z,6.38
2023-02-22T14:52:42.816Z,5.45
2023-02-22T14:55:24.330Z,5.03
2023-02-22T14:58:19.712Z,4.90
2023-02-22T15:00:49.091Z,4.22
2023-02-22T15:03:30.205Z,4.95
2023-02-22T15:05:57.256Z,9.40
2023-02-22T15:08:24.106Z,4.35
2023-02-22T15:10:51.931Z,4.70
2023-02-22T15:13:24.989Z,4.38
2023-02-22T15:16:00.510Z,4.07
2023-02-22T15:18:41.007Z,4.93
2023-02-22T15:21:21.192Z,5.00
2023-02-22T15:23:51.238Z,6.13
2023-02-22T15:26:26.832Z,3.55
2023-02-22T15:28:58.995Z,5.07
2023-02-22T15:31:35.445Z,6.45
2023-02-22T15:34:23.869Z,5.55
2023-02-22T15:36:53.897Z,4.13
2023-02-22T15:39:26.735Z,5.20
2023-02-22T15:42:08.697Z,6.32
2023-02-22T15:44:40.906Z,5.70
2023-02-22T15:47:16.449Z,4.43
2023-02-22T15:49:43.419Z,6.30
2023-02-22T15:52:22.357Z,5.22
2023-02-22T15:54:51.846Z,5.57
2023-02-22T15:57:21.929Z,5.57
2023-02-22T15:59:52.327Z,4.63
2023-02-22T16:02:42.191Z,4.73
2023-02-22T16:05:15.475Z,4.95
2023-02-22T16:07:47.099Z,4.05
2023-02-22T16:10:47.658Z,5.63
2023-02-22T16:13:31.507Z,4.00
2023-02-22T16:16:22.076Z,5.27
2023-02-22T16:18:50.735Z,8.98
2023-02-22T16:21:22.812Z,5.68
2023-02-22T16:24:01.333Z,4.95
2023-02-22T16:26:35.475Z,4.90
2023-02-22T16:29:05.965Z,4.30
2023-02-22T16:31:38.128Z,6.47
2023-02-22T16:34:10.418Z,6.43
2023-02-22T16:36:46.723Z,4.70
2023-02-22T16:39:24.426Z,4.45
2023-02-22T16:41:51.920Z,4.90
2023-02-22T16:44:19.217Z,5.47
2023-02-22T16:46:46.056Z,6.35
2023-02-22T16:49:13.643Z,6.85
2023-02-22T16:51:58.654Z,4.70
2023-02-22T16:54:29.912Z,5.90
2023-02-22T16:56:58.330Z,10.82
2023-02-22T16:59:25.215Z,7.28
2023-02-22T17:01:52.082Z,6.60
2023-02-22T17:04:24.205Z,7.47
2023-02-22T17:06:52.455Z,5.20
2023-02-22T17:09:20.022Z,5.75
2023-02-22T17:11:50.771Z,6.95
2023-02-22T17:14:23.144Z,6.53
2023-02-22T17:16:51.412Z,6.40
2023-02-22T17:19:26.288Z,7.83
2023-02-22T17:21:53.635Z,6.72
2023-02-22T17:24:25.171Z,7.70
2023-02-22T17:26:52.472Z,7.18
2023-02-22T17:29:20.663Z,7.28
2023-02-22T17:31:48.058Z,7.10
2023-02-22T17:34:15.818Z,6.68
2023-02-22T17:36:42.766Z,8.00
2023-02-22T17:39:10.104Z,8.60
2023-02-22T17:41:40.693Z,13.30
2023-02-22T17:44:08.614Z,8.60
2023-02-22T17:46:38.859Z,9.13
2023-02-22T17:49:06.463Z,8.60
2023-02-22T17:51:33.954Z,8.88
2023-02-22T17:54:01.168Z,8.38
2023-02-22T17:56:28.456Z,9.07
2023-02-22T17:58:56.312Z,8.55
2023-02-22T18:01:29.794Z,8.40
2023-02-22T18:04:00.835Z,8.38
2023-02-22T18:06:30.576Z,7.65
2023-02-22T18:09:00.356Z,7.50
2023-02-22T18:11:29.403Z,7.88
2023-02-22T18:13:57.917Z,8.55
2023-02-22T18:16:26.662Z,7.72
2023-02-22T18:18:55.482Z,11.65
2023-02-22T18:21:23.809Z,8.10
2023-02-22T18:23:51.040Z,8.48
2023-02-22T18:26:20.981Z,7.10
2023-02-22T18:28:48.837Z,9.10
2023-02-22T18:31:19.791Z,7.47
2023-02-22T18:33:50.999Z,8.90
2023-02-22T18:36:20.926Z,9.32
2023-02-22T18:38:48.623Z,8.00
2023-02-22T18:41:18.482Z,9.65
2023-02-22T18:43:46.955Z,8.48
2023-02-22T18:46:16.946Z,9.57
2023-02-22T18:48:46.062Z,9.05
2023-02-22T18:51:16.251Z,8.52
2023-02-22T18:53:47.738Z,10.15
2023-02-22T18:56:19.164Z,8.48
2023-02-22T18:58:47.334Z,9.73
2023-02-22T19:01:19.823Z,10.25
2023-02-22T19:03:47.607Z,10.20
2023-02-22T19:06:17.872Z,9.70
2023-02-22T19:08:46.997Z,11.65
2023-02-22T19:11:21.339Z,12.17
2023-02-22T19:13:52.712Z,9.65
2023-02-22T19:16:22.359Z,9.40
2023-02-22T19:18:52.697Z,9.20
2023-02-22T19:21:21.361Z,9.98
2023-02-22T19:23:49.877Z,10.93
2023-02-22T19:26:26.546Z,9.93
2023-02-22T19:28:56.424Z,9.55
2023-02-22T19:31:28.986Z,12.05
2023-02-22T19:34:00.713Z,10.23
2023-02-22T19:36:28.903Z,10.17
2023-02-22T19:38:59.110Z,10.43
2023-02-22T19:41:26.347Z,11.95
2023-02-22T19:43:57.350Z,10.25
2023-02-22T19:46:25.585Z,10.52
2023-02-22T19:48:54.790Z,11.60
2023-02-22T19:51:25.100Z,12.10
2023-02-22T19:53:56.120Z,12.18
2023-02-22T19:56:24.024Z,13.40
2023-02-22T19:58:53.207Z,11.85
2023-02-22T20:01:24.934Z,11.23
2023-02-22T20:04:01.890Z,12.30
2023-02-22T20:06:33.592Z,12.70
2023-02-22T20:09:02.525Z,12.82
2023-02-22T20:11:30.485Z,13.98
2023-02-22T20:13:58.358Z,11.23
2023-02-22T20:16:26.178Z,12.63
2023-02-22T20:18:56.904Z,12.85
2023-02-22T20:21:33.415Z,13.23
2023-02-22T20:24:03.108Z,14.00
2023-02-22T20:26:33.787Z,12.37
2023-02-22T20:29:04.894Z,14.98
2023-02-22T20:31:34.167Z,12.77
2023-02-22T20:34:03.019Z,12.13
2023-02-22T20:36:33.377Z,13.30
2023-02-22T20:39:03.536Z,13.50
2023-02-22T20:41:33.875Z,13.25
2023-02-22T20:44:03.063Z,12.57
2023-02-22T20:46:33.256Z,12.32
2023-02-22T20:49:02.845Z,13.25
2023-02-22T20:51:31.361Z,12.47
2023-02-22T20:54:01.411Z,13.32
2023-02-22T20:56:33.604Z,16.75
2023-02-22T20:59:04.379Z,17.08
2023-02-22T21:01:32.588Z,12.88
2023-02-22T21:04:05.731Z,13.33
2023-02-22T21:06:34.914Z,17.38
2023-02-22T21:09:04.753Z,15.93
2023-02-22T21:11:32.482Z,13.20
2023-02-22T21:14:02.898Z,15.38
2023-02-22T21:16:36.286Z,14.00
2023-02-22T21:19:08.172Z,17.95
2023-02-22T21:21:36.598Z,15.35
2023-02-22T21:24:04.524Z,14.65
2023-02-22T21:26:35.201Z,14.05
2023-02-22T21:29:06.226Z,13.73
2023-02-22T21:31:34.568Z,12.32
2023-02-22T21:34:02.710Z,15.93
2023-02-22T21:36:31.186Z,14.18
2023-02-22T21:39:01.692Z,13.18
2023-02-22T21:41:31.591Z,13.13
2023-02-22T21:43:59.589Z,14.48
2023-02-22T21:46:29.144Z,13.38
2023-02-22T21:48:58.505Z,13.15
2023-02-22T21:51:29.274Z,13.98
2023-02-22T21:53:56.248Z,14.13
2023-02-22T21:56:25.934Z,14.05
2023-02-22T21:58:57.606Z,14.68
2023-02-22T22:01:29.669Z,14.18
2023-02-22T22:03:58.714Z,13.30
2023-02-22T22:06:28.059Z,13.63
2023-02-22T22:08:57.034Z,13.82
2023-02-22T22:11:24.050Z,15.68
2023-02-22T22:13:53.299Z,15.48
2023-02-22T22:16:20.498Z,13.77
2023-02-22T22:18:47.349Z,14.43
2023-02-22T22:21:19.819Z,13.70
2023-02-22T22:23:48.070Z,15.38
2023-02-22T22:26:18.061Z,11.90
2023-02-22T22:28:50.339Z,13.73
2023-02-22T22:31:20.271Z,15.10
2023-02-22T22:33:48.075Z,16.02
2023-02-22T22:36:17.139Z,12.68
2023-02-22T22:38:44.840Z,13.00
2023-02-22T22:41:11.758Z,13.82
2023-02-22T22:43:39.241Z,14.40
2023-02-22T22:46:07.648Z,13.40
2023-02-22T22:48:36.574Z,16.27
2023-02-22T22:51:06.826Z,13.50
2023-02-22T22:53:34.559Z,13.65
2023-02-22T22:56:07.208Z,17.00
2023-02-22T22:58:35.465Z,14.45
2023-02-22T23:01:03.008Z,14.95
2023-02-22T23:03:30.358Z,11.80
2023-02-22T23:06:01.881Z,15.02
2023-02-22T23:08:28.769Z,14.20
2023-02-22T23:10:56.806Z,15.13
2023-02-22T23:13:24.039Z,15.25
2023-02-22T23:15:51.098Z,14.68
2023-02-22T23:18:17.921Z,13.77
2023-02-22T23:20:44.823Z,14.20
2023-02-22T23:23:11.653Z,13.15
2023-02-22T23:25:38.551Z,15.55
2023-02-22T23:28:05.463Z,14.07
2023-02-22T23:30:32.339Z,16.88
2023-02-22T23:32:59.185Z,15.10
2023-02-22T23:35:26.217Z,19.15
2023-02-22T23:37:53.054Z,13.43
2023-02-22T23:40:19.890Z,15.43
2023-02-22T23:42:50.804Z,14.90
2023-02-22T23:45:18.416Z,17.17
2023-02-22T23:47:45.238Z,20.83
2023-02-22T23:50:12.107Z,14.93
2023-02-22T23:52:39.018Z,16.63
2023-02-22T23:55:06.161Z,18.17
2023-02-22T23:57:33.026Z,16.43
2023-02-22T23:59:59.887Z,16.73
